Time,TemperatureF,DewpointF,PressureIn,WindDirection,WindDirectionDegrees,WindSpeedMPH,WindSpeedGustMPH,Humidity,HourlyPrecipIn,Conditions,Clouds,dailyrainin,SoftwareType,DateUTC
2013-09-16 00:01:00,43.0,39.1,30.24,WNW,292,0.0,0.0,86,0.00,CLR,CLR,0.16,WeatherDisplay:10.37,2013-09-16 04:01:00,
2013-09-16 00:02:00,43.0,39.1,30.24,WNW,292,0.0,0.0,86,0.00,CLR,CLR,0.00,WeatherDisplay:10.37,2013-09-16 04:02:00,
2013-09-16 00:04:00,43.0,39.1,30.24,WNW,292,0.0,0.0,86,0.00,CLR,CLR,0.00,WeatherDisplay:10.37,2013-09-16 04:04:00,
2013-09-16 00:05:00,43.0,39.1,30.24,WNW,292,0.0,0.0,86,0.00,CLR,CLR,0.00,WeatherDisplay:10.37,2013-09-16 04:05:00,
2013-09-16 00:07:00,43.0,39.1,30.24,WNW,292,0.0,0.0,86,0.00,CLR,CLR,0.00,WeatherDisplay:10.37,2013-09-16 04:07:00,
2013-09-16 00:12:00,43.0,39.1,30.24,WNW,292,0.0,0.0,86,0.00,CLR,CLR,0.00,WeatherDisplay:10.37,2013-09-16 04:12:00,
2013-09-16 00:14:00,43.0,39.1,30.24,WNW,292,0.0,0.0,86,0.00,CLR,CLR,0.00,WeatherDisplay:10.37,2013-09-16 04:14:00,
2013-09-16 00:19:00,43.0,39.1,30.24,WNW,292,0.0,0.0,86,0.00,CLR,CLR,0.00,WeatherDisplay:10.37,2013-09-16 04:19:00,
2013-09-16 00:24:00,43.2,39.3,30.24,WNW,292,0.0,0.0,86,0.00,CLR,CLR,0.00,WeatherDisplay:10.37,2013-09-16 04:24:00,
2013-09-16 00:30:00,43.2,39.3,30.24,WNW,292,0.0,0.0,86,0.00,CLR,CLR,0.00,WeatherDisplay:10.37,2013-09-16 04:30:00,
2013-09-16 00:35:00,43.3,39.4,30.24,WNW,292,0.0,0.0,86,0.00,CLR,CLR,0.00,WeatherDisplay:10.37,2013-09-16 04:35:00,
2013-09-16 00:40:00,43.3,39.7,30.25,WNW,292,0.0,0.0,87,0.00,CLR,CLR,0.00,WeatherDisplay:10.37,2013-09-16 04:40:00,
2013-09-16 00:46:00,43.3,39.7,30.25,WNW,292,0.0,0.0,87,0.00,CLR,CLR,0.00,WeatherDisplay:10.37,2013-09-16 04:46:00,
2013-09-16 00:51:00,43.2,39.6,30.25,WNW,292,0.0,0.0,87,0.00,CLR,CLR,0.00,WeatherDisplay:10.37,2013-09-16 04:51:00,
2013-09-16 00:56:00,43.2,39.6,30.25,WNW,292,0.0,0.0,87,0.00,CLR,CLR,0.00,WeatherDisplay:10.37,2013-09-16 04:56:00,
2013-09-16 01:01:00,43.2,39.6,30.25,WNW,292,0.0,0.0,87,0.00,CLR,CLR,0.00,WeatherDisplay:10.37,2013-09-16 05:01:00,
2013-09-16 01:06:00,43.3,39.7,30.25,WNW,292,0.0,0.0,87,0.00,CLR,CLR,0.00,WeatherDisplay:10.37,2013-09-16 05:06:00,
2013-09-16 01:12:00,43.3,39.7,30.24,SW,225,0.0,0.0,87,0.00,CLR,CLR,0.00,WeatherDisplay:10.37,2013-09-16 05:12:00,
2013-09-16 01:17:00,43.5,39.9,30.25,SW,225,0.0,0.0,87,0.00,CLR,CLR,0.00,WeatherDisplay:10.37,2013-09-16 05:17:00,
2013-09-16 01:22:00,43.5,39.9,30.25,SW,225,0.0,0.0,87,0.00,CLR,CLR,0.00,WeatherDisplay:10.37,2013-09-16 05:22:00,
2013-09-16 01:27:00,43.9,40.3,30.25,SW,225,0.0,0.0,87,0.00,CLR,CLR,0.00,WeatherDisplay:10.37,2013-09-16 05:27:00,
2013-09-16 01:32:00,44.1,40.4,30.25,SW,225,0.0,0.0,87,0.00,CLR,CLR,0.00,WeatherDisplay:10.37,2013-09-16 05:32:00,
2013-09-16 01:37:00,44.2,40.6,30.26,SW,225,0.0,0.0,87,0.00,CLR,CLR,0.00,WeatherDisplay:10.37,2013-09-16 05:37:00,
2013-09-16 01:42:00,44.2,40.6,30.26,SW,225,0.0,0.0,87,0.00,CLR,CLR,0.00,WeatherDisplay:10.37,2013-09-16 05:42:00,
2013-09-16 01:48:00,44.2,40.6,30.26,SW,225,0.0,0.0,87,0.00,CLR,CLR,0.00,WeatherDisplay:10.37,2013-09-16 05:48:00,
2013-09-16 01:53:00,44.2,40.6,30.26,SW,225,0.0,0.0,87,0.00,CLR,CLR,0.00,WeatherDisplay:10.37,2013-09-16 05:53:00,
2013-09-16 01:58:00,44.1,40.4,30.26,SW,225,0.0,0.0,87,0.00,CLR,CLR,0.00,WeatherDisplay:10.37,2013-09-16 05:58:00,
2013-09-16 02:03:00,43.9,40.3,30.26,SW,225,0.0,0.0,87,0.00,CLR,CLR,0.00,WeatherDisplay:10.37,2013-09-16 06:03:00,
2013-09-16 02:08:00,43.9,40.3,30.26,SW,225,0.0,0.0,87,0.00,CLR,CLR,0.00,WeatherDisplay:10.37,2013-09-16 06:08:00,
2013-09-16 02:13:00,43.7,40.1,30.26,SW,225,0.0,0.0,87,0.00,CLR,CLR,0.00,WeatherDisplay:10.37,2013-09-16 06:13:00,
2013-09-16 02:18:00,43.5,39.9,30.27,WSW,248,0.0,0.0,87,0.00,CLR,CLR,0.00,WeatherDisplay:10.37,2013-09-16 06:18:00,
2013-09-16 02:23:00,43.3,39.7,30.27,WSW,248,0.0,0.0,87,0.00,CLR,CLR,0.00,WeatherDisplay:10.37,2013-09-16 06:23:00,
2013-09-16 02:28:00,43.2,39.6,30.26,WSW,248,0.0,0.0,87,0.00,CLR,CLR,0.00,WeatherDisplay:10.37,2013-09-16 06:28:00,
2013-09-16 02:33:00,43.0,39.4,30.26,WSW,248,0.0,0.0,87,0.00,CLR,CLR,0.00,WeatherDisplay:10.37,2013-09-16 06:33:00,
2013-09-16 02:38:00,43.0,39.4,30.26,WSW,248,0.0,0.0,87,0.00,CLR,CLR,0.00,WeatherDisplay:10.37,2013-09-16 06:38:00,
2013-09-16 02:43:00,42.6,39.0,30.27,WSW,248,0.0,0.0,87,0.00,CLR,CLR,0.00,WeatherDisplay:10.37,2013-09-16 06:43:00,
2013-09-16 02:48:00,42.6,39.0,30.27,WSW,248,0.0,0.0,87,0.00,CLR,CLR,0.00,WeatherDisplay:10.37,2013-09-16 06:48:00,
2013-09-16 02:53:00,42.6,39.0,30.27,WSW,248,0.0,0.0,87,0.00,CLR,CLR,0.00,WeatherDisplay:10.37,2013-09-16 06:53:00,
2013-09-16 02:58:00,42.6,39.0,30.27,WSW,248,0.0,0.0,87,0.00,CLR,CLR,0.00,WeatherDisplay:10.37,2013-09-16 06:58:00,
2013-09-16 03:03:00,42.4,38.8,30.27,WSW,248,0.0,0.0,87,0.00,CLR,CLR,0.00,WeatherDisplay:10.37,2013-09-16 07:03:00,
2013-09-16 03:08:00,42.4,38.5,30.27,WSW,248,0.0,0.0,86,0.00,CLR,CLR,0.00,WeatherDisplay:10.37,2013-09-16 07:08:00,
2013-09-16 03:13:00,42.3,38.4,30.27,WSW,248,0.0,0.0,86,0.00,CLR,CLR,0.00,WeatherDisplay:10.37,2013-09-16 07:13:00,
2013-09-16 03:18:00,42.1,38.2,30.27,WSW,248,0.0,0.0,86,0.00,CLR,CLR,0.00,WeatherDisplay:10.37,2013-09-16 07:18:00,
2013-09-16 03:23:00,42.1,38.2,30.27,WSW,248,0.0,0.0,86,0.00,CLR,CLR,0.00,WeatherDisplay:10.37,2013-09-16 07:23:00,
2013-09-16 03:28:00,42.1,38.2,30.26,WSW,248,0.0,0.0,86,0.00,CLR,CLR,0.00,WeatherDisplay:10.37,2013-09-16 07:28:00,
2013-09-16 03:33:00,41.9,38.3,30.27,West,270,0.0,0.0,87,0.00,CLR,CLR,0.00,WeatherDisplay:10.37,2013-09-16 07:33:00,
2013-09-16 03:38:00,41.7,38.1,30.27,West,270,0.0,0.0,87,0.00,CLR,CLR,0.00,WeatherDisplay:10.37,2013-09-16 07:38:00,
2013-09-16 03:43:00,41.5,38.0,30.27,NW,315,0.0,0.0,87,0.00,CLR,CLR,0.00,WeatherDisplay:10.37,2013-09-16 07:43:00,
2013-09-16 03:48:00,41.5,38.0,30.27,NW,315,0.0,0.0,87,0.00,CLR,CLR,0.00,WeatherDisplay:10.37,2013-09-16 07:48:00,
2013-09-16 03:53:00,41.4,37.8,30.27,NW,315,0.0,0.0,87,0.00,CLR,CLR,0.00,WeatherDisplay:10.37,2013-09-16 07:53:00,
2013-09-16 03:58:00,41.2,37.6,30.28,NW,315,0.0,0.0,87,0.00,CLR,CLR,0.00,WeatherDisplay:10.37,2013-09-16 07:58:00,
2013-09-16 04:03:00,41.2,37.6,30.28,NW,315,0.0,0.0,87,0.00,CLR,CLR,0.00,WeatherDisplay:10.37,2013-09-16 08:03:00,
2013-09-16 04:08:00,41.2,37.6,30.27,NW,315,0.0,0.0,87,0.00,CLR,CLR,0.00,WeatherDisplay:10.37,2013-09-16 08:08:00,
2013-09-16 04:13:00,41.0,37.4,30.28,NW,315,0.0,0.0,87,0.00,CLR,CLR,0.00,WeatherDisplay:10.37,2013-09-16 08:13:00,
2013-09-16 04:18:00,41.0,37.4,30.28,NW,315,0.0,0.0,87,0.00,CLR,CLR,0.00,WeatherDisplay:10.37,2013-09-16 08:18:00,
2013-09-16 04:23:00,40.8,37.3,30.28,NW,315,0.0,0.0,87,0.00,CLR,CLR,0.00,WeatherDisplay:10.37,2013-09-16 08:23:00,
2013-09-16 04:28:00,40.8,37.3,30.28,NW,315,0.0,0.0,87,0.00,CLR,CLR,0.00,WeatherDisplay:10.37,2013-09-16 08:28:00,
2013-09-16 04:33:00,40.8,37.3,30.28,NW,315,0.0,0.0,87,0.00,CLR,CLR,0.00,WeatherDisplay:10.37,2013-09-16 08:33:00,
2013-09-16 04:38:00,40.6,37.1,30.28,NW,315,0.0,0.0,87,0.00,CLR,CLR,0.00,WeatherDisplay:10.37,2013-09-16 08:38:00,
2013-09-16 04:43:00,40.6,37.1,30.28,NW,315,0.0,0.0,87,0.00,CLR,CLR,0.00,WeatherDisplay:10.37,2013-09-16 08:43:00,
2013-09-16 04:48:00,40.5,36.9,30.29,NW,315,0.0,0.0,87,0.00,CLR,CLR,0.00,WeatherDisplay:10.37,2013-09-16 08:48:00,
2013-09-16 04:53:00,40.3,36.7,30.29,NW,315,0.0,0.0,87,0.00,CLR,CLR,0.00,WeatherDisplay:10.37,2013-09-16 08:53:00,
2013-09-16 04:58:00,40.3,36.7,30.29,NW,315,0.0,0.0,87,0.00,CLR,CLR,0.00,WeatherDisplay:10.37,2013-09-16 08:58:00,
2013-09-16 05:03:00,40.3,36.7,30.29,NW,315,0.0,0.0,87,0.00,CLR,CLR,0.00,WeatherDisplay:10.37,2013-09-16 09:03:00,
2013-09-16 05:08:00,40.3,36.7,30.29,NW,315,0.0,0.0,87,0.00,CLR,CLR,0.00,WeatherDisplay:10.37,2013-09-16 09:08:00,
2013-09-16 05:13:00,40.1,36.5,30.29,NW,315,0.0,0.0,87,0.00,CLR,CLR,0.00,WeatherDisplay:10.37,2013-09-16 09:13:00,
2013-09-16 05:18:00,40.1,36.5,30.29,NW,315,0.0,0.0,87,0.00,CLR,CLR,0.00,WeatherDisplay:10.37,2013-09-16 09:18:00,
2013-09-16 05:23:00,40.1,36.5,30.29,NW,315,0.0,0.0,87,0.00,CLR,CLR,0.00,WeatherDisplay:10.37,2013-09-16 09:23:00,
2013-09-16 05:28:00,40.1,36.8,30.29,NW,315,0.0,0.0,88,0.00,CLR,CLR,0.00,WeatherDisplay:10.37,2013-09-16 09:28:00,
2013-09-16 05:33:00,40.1,36.8,30.29,NW,315,0.0,0.0,88,0.00,CLR,CLR,0.00,WeatherDisplay:10.37,2013-09-16 09:33:00,
2013-09-16 05:38:00,39.9,36.7,30.29,NW,315,0.0,0.0,88,0.00,CLR,CLR,0.00,WeatherDisplay:10.37,2013-09-16 09:38:00,
2013-09-16 05:43:00,39.9,36.7,30.30,NW,315,0.0,0.0,88,0.00,CLR,CLR,0.00,WeatherDisplay:10.37,2013-09-16 09:43:00,
2013-09-16 05:48:00,39.9,36.7,30.30,NW,315,0.0,0.0,88,0.00,CLR,CLR,0.00,WeatherDisplay:10.37,2013-09-16 09:48:00,
2013-09-16 05:53:00,39.9,36.7,30.30,NW,315,0.0,0.0,88,0.00,CLR,CLR,0.00,WeatherDisplay:10.37,2013-09-16 09:53:00,
2013-09-16 05:58:00,39.9,36.7,30.30,NW,315,0.0,0.0,88,0.00,CLR,CLR,0.00,WeatherDisplay:10.37,2013-09-16 09:58:00,
2013-09-16 06:04:00,39.9,36.7,30.30,NW,315,0.0,0.0,88,0.00,CLR,CLR,0.00,WeatherDisplay:10.37,2013-09-16 10:04:00,
2013-09-16 06:09:00,39.7,36.5,30.30,NW,315,0.0,0.0,88,0.00,CLR,CLR,0.00,WeatherDisplay:10.37,2013-09-16 10:09:00,
2013-09-16 06:14:00,39.7,36.5,30.31,NW,315,0.0,0.0,88,0.00,CLR,CLR,0.00,WeatherDisplay:10.37,2013-09-16 10:14:00,
2013-09-16 06:19:00,39.7,36.5,30.31,NW,315,0.0,0.0,88,0.00,CLR,CLR,0.00,WeatherDisplay:10.37,2013-09-16 10:19:00,
2013-09-16 06:25:00,39.7,36.5,30.31,NW,315,0.0,0.0,88,0.00,CLR,CLR,0.00,WeatherDisplay:10.37,2013-09-16 10:25:00,
2013-09-16 06:31:00,39.6,36.3,30.32,NW,315,0.0,0.0,88,0.00,CLR,CLR,0.00,WeatherDisplay:10.37,2013-09-16 10:31:00,
2013-09-16 06:36:00,39.6,36.3,30.31,NW,315,0.0,0.0,88,0.00,CLR,CLR,0.00,WeatherDisplay:10.37,2013-09-16 10:36:00,
2013-09-16 06:41:00,39.6,36.3,30.32,NW,315,0.0,0.0,88,0.00,CLR,CLR,0.00,WeatherDisplay:10.37,2013-09-16 10:41:00,
2013-09-16 06:46:00,39.6,36.3,30.32,NW,315,0.0,0.0,88,0.00,CLR,CLR,0.00,WeatherDisplay:10.37,2013-09-16 10:46:00,
2013-09-16 06:51:00,39.4,36.1,30.32,NW,315,0.0,0.0,88,0.00,CLR,CLR,0.00,WeatherDisplay:10.37,2013-09-16 10:51:00,
2013-09-16 06:56:00,39.4,36.1,30.32,NW,315,0.0,0.0,88,0.00,CLR,CLR,0.00,WeatherDisplay:10.37,2013-09-16 10:56:00,
2013-09-16 07:01:00,39.4,36.1,30.32,WNW,292,0.0,0.0,88,0.00,CLR,CLR,0.00,WeatherDisplay:10.37,2013-09-16 11:01:00,
2013-09-16 07:06:00,39.4,35.8,30.33,WNW,292,0.0,0.0,87,0.00,CLR,CLR,0.00,WeatherDisplay:10.37,2013-09-16 11:06:00,
2013-09-16 07:11:00,39.4,35.8,30.33,WNW,292,0.0,0.0,87,0.00,CLR,CLR,0.00,WeatherDisplay:10.37,2013-09-16 11:11:00,
2013-09-16 07:16:00,39.4,35.8,30.33,WNW,292,0.0,0.0,87,0.00,CLR,CLR,0.00,WeatherDisplay:10.37,2013-09-16 11:16:00,
2013-09-16 07:21:00,39.4,35.8,30.33,WNW,292,0.0,0.0,87,0.00,CLR,CLR,0.00,WeatherDisplay:10.37,2013-09-16 11:21:00,
2013-09-16 07:26:00,39.4,36.1,30.33,WNW,292,0.0,0.0,88,0.00,CLR,CLR,0.00,WeatherDisplay:10.37,2013-09-16 11:26:00,
2013-09-16 07:31:00,39.4,36.1,30.34,WNW,292,0.0,0.0,88,0.00,CLR,CLR,0.00,WeatherDisplay:10.37,2013-09-16 11:31:00,
2013-09-16 07:36:00,39.6,36.3,30.34,WNW,292,0.0,0.0,88,0.00,CLR,CLR,0.00,WeatherDisplay:10.37,2013-09-16 11:36:00,
2013-09-16 07:42:00,39.6,36.3,30.34,WNW,292,0.0,0.0,88,0.00,CLR,CLR,0.00,WeatherDisplay:10.37,2013-09-16 11:42:00,
2013-09-16 07:47:00,39.7,36.5,30.34,WNW,292,0.0,0.0,88,0.00,CLR,CLR,0.00,WeatherDisplay:10.37,2013-09-16 11:47:00,
2013-09-16 07:52:00,39.7,36.5,30.34,WNW,292,0.0,0.0,88,0.00,CLR,CLR,0.00,WeatherDisplay:10.37,2013-09-16 11:52:00,
2013-09-16 07:57:00,39.7,36.5,30.35,WNW,292,0.0,0.0,88,0.00,CLR,CLR,0.00,WeatherDisplay:10.37,2013-09-16 11:57:00,
2013-09-16 08:02:00,39.7,36.5,30.35,WNW,292,0.0,0.0,88,0.00,CLR,CLR,0.00,WeatherDisplay:10.37,2013-09-16 12:02:00,
2013-09-16 08:07:00,39.9,36.7,30.35,WNW,292,0.0,0.0,88,0.00,CLR,CLR,0.00,WeatherDisplay:10.37,2013-09-16 12:07:00,
2013-09-16 08:12:00,39.9,36.7,30.35,WNW,292,0.0,0.0,88,0.00,CLR,CLR,0.00,WeatherDisplay:10.37,2013-09-16 12:12:00,
2013-09-16 08:17:00,39.9,36.7,30.35,NW,315,0.0,0.0,88,0.00,CLR,CLR,0.00,WeatherDisplay:10.37,2013-09-16 12:17:00,
2013-09-16 08:22:00,40.3,37.0,30.35,NW,315,0.0,0.0,88,0.00,CLR,CLR,0.00,WeatherDisplay:10.37,2013-09-16 12:22:00,
2013-09-16 08:27:00,40.3,37.0,30.35,WNW,292,0.0,0.0,88,0.00,CLR,CLR,0.00,WeatherDisplay:10.37,2013-09-16 12:27:00,
2013-09-16 08:32:00,40.5,37.2,30.35,WNW,292,0.0,0.0,88,0.00,CLR,CLR,0.00,WeatherDisplay:10.37,2013-09-16 12:32:00,
2013-09-16 08:37:00,40.8,37.5,30.35,WNW,292,0.0,0.0,88,0.00,CLR,CLR,0.00,WeatherDisplay:10.37,2013-09-16 12:37:00,
2013-09-16 08:42:00,40.8,37.5,30.35,WNW,292,26.5,0.0,88,0.00,CLR,CLR,0.00,WeatherDisplay:10.37,2013-09-16 12:42:00,
2013-09-16 08:47:00,41.2,37.9,30.35,WNW,292,0.0,0.0,88,0.00,CLR,CLR,0.00,WeatherDisplay:10.37,2013-09-16 12:47:00,
2013-09-16 08:52:00,41.5,38.3,30.35,WNW,292,0.0,0.0,88,0.00,CLR,CLR,0.00,WeatherDisplay:10.37,2013-09-16 12:52:00,
2013-09-16 08:57:00,42.1,39.1,30.35,WNW,292,0.0,0.0,89,0.00,CLR,CLR,0.00,WeatherDisplay:10.37,2013-09-16 12:57:00,
2013-09-16 09:02:00,42.3,39.2,30.35,WNW,292,0.0,0.0,89,0.00,CLR,CLR,0.00,WeatherDisplay:10.37,2013-09-16 13:02:00,
2013-09-16 09:07:00,42.6,39.6,30.36,NW,315,0.0,0.0,89,0.00,CLR,CLR,0.00,WeatherDisplay:10.37,2013-09-16 13:07:00,
2013-09-16 09:12:00,43.3,40.3,30.36,NW,315,0.0,0.0,89,0.00,CLR,CLR,0.00,WeatherDisplay:10.37,2013-09-16 13:12:00,
2013-09-16 09:17:00,43.5,40.5,30.36,NW,315,0.0,0.0,89,0.00,CLR,CLR,0.00,WeatherDisplay:10.37,2013-09-16 13:17:00,
2013-09-16 09:22:00,43.9,40.8,30.36,NW,315,0.0,0.0,89,0.00,CLR,CLR,0.00,WeatherDisplay:10.37,2013-09-16 13:22:00,
2013-09-16 09:27:00,44.4,41.4,30.36,NW,315,0.0,0.0,89,0.00,CLR,CLR,0.00,WeatherDisplay:10.37,2013-09-16 13:27:00,
2013-09-16 09:32:00,44.6,41.6,30.36,NW,315,0.0,0.0,89,0.00,CLR,CLR,0.00,WeatherDisplay:10.37,2013-09-16 13:32:00,
2013-09-16 09:37:00,45.0,41.9,30.36,NW,315,0.0,0.0,89,0.00,CLR,CLR,0.00,WeatherDisplay:10.37,2013-09-16 13:37:00,
2013-09-16 09:42:00,45.1,42.1,30.37,NW,315,0.0,0.0,89,0.00,CLR,CLR,0.00,WeatherDisplay:10.37,2013-09-16 13:42:00,
2013-09-16 09:47:00,45.7,42.3,30.37,NW,315,0.0,0.0,88,0.00,CLR,CLR,0.00,WeatherDisplay:10.37,2013-09-16 13:47:00,
2013-09-16 09:52:00,46.0,42.7,30.37,NW,315,0.0,0.0,88,0.00,CLR,CLR,0.00,WeatherDisplay:10.37,2013-09-16 13:52:00,
2013-09-16 09:57:00,46.8,43.4,30.37,NW,315,0.0,0.0,88,0.00,CLR,CLR,0.00,WeatherDisplay:10.37,2013-09-16 13:57:00,
2013-09-16 10:03:00,47.5,44.1,30.37,WNW,292,0.0,0.0,88,0.00,CLR,CLR,0.00,WeatherDisplay:10.37,2013-09-16 14:03:00,
2013-09-16 10:08:00,47.8,44.5,30.37,WNW,292,0.0,0.0,88,0.00,CLR,CLR,0.00,WeatherDisplay:10.37,2013-09-16 14:08:00,
2013-09-16 10:13:00,48.4,44.7,30.37,NNW,338,0.0,0.0,87,0.00,CLR,CLR,0.00,WeatherDisplay:10.37,2013-09-16 14:13:00,
2013-09-16 10:18:00,48.9,45.2,30.37,NW,315,0.0,0.0,87,0.00,CLR,CLR,0.00,WeatherDisplay:10.37,2013-09-16 14:18:00,
2013-09-16 10:23:00,49.8,45.5,30.37,NW,315,0.0,0.0,85,0.00,CLR,CLR,0.00,WeatherDisplay:10.37,2013-09-16 14:23:00,
2013-09-16 10:28:00,50.5,46.2,30.37,SE,135,1.3,1.3,85,0.00,CLR,CLR,0.00,WeatherDisplay:10.37,2013-09-16 14:28:00,
2013-09-16 10:34:00,51.4,45.8,30.38,NE,45,0.0,0.0,81,0.00,CLR,CLR,0.00,WeatherDisplay:10.37,2013-09-16 14:34:00,
2013-09-16 10:39:00,52.0,45.7,30.38,ESE,112,0.0,0.0,79,0.00,CLR,CLR,0.00,WeatherDisplay:10.37,2013-09-16 14:39:00,
2013-09-16 10:44:00,53.2,46.2,30.38,NE,45,0.0,0.0,77,0.00,CLR,CLR,0.00,WeatherDisplay:10.37,2013-09-16 14:44:00,
2013-09-16 10:49:00,54.1,46.7,30.37,NE,45,0.0,0.0,76,0.00,CLR,CLR,0.00,WeatherDisplay:10.37,2013-09-16 14:49:00,
2013-09-16 10:54:00,54.7,46.9,30.37,NE,45,0.0,0.0,75,0.00,CLR,CLR,0.00,WeatherDisplay:10.37,2013-09-16 14:54:00,
2013-09-16 10:59:00,55.6,46.7,30.38,ENE,68,0.0,0.0,72,0.00,CLR,CLR,0.00,WeatherDisplay:10.37,2013-09-16 14:59:00,
2013-09-16 11:04:00,56.5,47.6,30.37,NNW,338,0.0,0.0,72,0.00,CLR,CLR,0.00,WeatherDisplay:10.37,2013-09-16 15:04:00,
2013-09-16 11:10:00,57.4,47.3,30.37,NE,45,0.0,0.0,69,0.00,CLR,CLR,0.00,WeatherDisplay:10.37,2013-09-16 15:10:00,
2013-09-16 11:15:00,58.3,47.4,30.38,ESE,112,1.3,1.3,67,0.00,CLR,CLR,0.00,WeatherDisplay:10.37,2013-09-16 15:15:00,
2013-09-16 11:20:00,58.8,47.1,30.38,ESE,112,1.1,1.1,65,0.00,CLR,CLR,0.00,WeatherDisplay:10.37,2013-09-16 15:20:00,
2013-09-16 11:26:00,59.5,47.8,30.38,NNW,338,0.0,0.0,65,0.00,CLR,CLR,0.00,WeatherDisplay:10.37,2013-09-16 15:26:00,
2013-09-16 11:31:00,59.7,48.3,30.38,NE,45,1.1,1.1,66,0.00,CLR,CLR,0.00,WeatherDisplay:10.37,2013-09-16 15:31:00,
2013-09-16 11:36:00,60.1,47.9,30.38,NW,315,0.0,0.0,64,0.00,CLR,CLR,0.00,WeatherDisplay:10.37,2013-09-16 15:36:00,
2013-09-16 11:41:00,60.4,47.4,30.38,ENE,68,1.1,1.1,62,0.00,CLR,CLR,0.00,WeatherDisplay:10.37,2013-09-16 15:41:00,
2013-09-16 11:46:00,60.4,46.9,30.38,WSW,248,0.0,0.0,61,0.00,CLR,CLR,0.00,WeatherDisplay:10.37,2013-09-16 15:46:00,
2013-09-16 11:51:00,60.6,47.9,30.38,SSW,202,1.3,1.3,63,0.00,CLR,CLR,0.00,WeatherDisplay:10.37,2013-09-16 15:51:00,
2013-09-16 11:56:00,60.4,46.9,30.38,ENE,68,0.0,0.0,61,0.00,CLR,CLR,0.00,WeatherDisplay:10.37,2013-09-16 15:56:00,
2013-09-16 12:01:00,59.5,46.5,30.38,SSW,202,0.0,0.0,62,0.00,CLR,CLR,0.00,WeatherDisplay:10.37,2013-09-16 16:01:00,
2013-09-16 12:06:00,58.8,46.2,30.37,ESE,112,0.0,0.0,63,0.00,CLR,CLR,0.00,WeatherDisplay:10.37,2013-09-16 16:06:00,
2013-09-16 12:11:00,58.1,45.6,30.37,South,180,0.0,0.0,63,0.00,CLR,CLR,0.00,WeatherDisplay:10.37,2013-09-16 16:11:00,
2013-09-16 12:16:00,58.5,45.9,30.37,ESE,112,0.0,0.0,63,0.00,CLR,CLR,0.00,WeatherDisplay:10.37,2013-09-16 16:16:00,
2013-09-16 12:21:00,59.2,46.2,30.37,NNW,338,0.0,0.0,62,0.00,CLR,CLR,0.00,WeatherDisplay:10.37,2013-09-16 16:21:00,
2013-09-16 12:26:00,58.8,46.2,30.37,WSW,248,0.0,0.0,63,0.00,CLR,CLR,0.00,WeatherDisplay:10.37,2013-09-16 16:26:00,
2013-09-16 12:31:00,58.6,46.5,30.37,NNE,22,0.0,0.0,64,0.00,CLR,CLR,0.00,WeatherDisplay:10.37,2013-09-16 16:31:00,
2013-09-16 12:36:00,57.6,45.5,30.37,NE,45,0.0,0.0,64,0.00,CLR,CLR,0.00,WeatherDisplay:10.37,2013-09-16 16:36:00,
2013-09-16 12:41:00,57.4,45.7,30.37,ENE,68,0.0,0.0,65,0.00,CLR,CLR,0.00,WeatherDisplay:10.37,2013-09-16 16:41:00,
2013-09-16 12:46:00,57.6,45.5,30.37,SSW,202,0.0,0.0,64,0.00,CLR,CLR,0.00,WeatherDisplay:10.37,2013-09-16 16:46:00,
2013-09-16 12:51:00,58.6,46.5,30.37,NE,45,2.5,2.5,64,0.00,CLR,CLR,0.00,WeatherDisplay:10.37,2013-09-16 16:51:00,
2013-09-16 12:56:00,58.6,46.1,30.38,ENE,68,0.0,0.0,63,0.00,CLR,CLR,0.00,WeatherDisplay:10.37,2013-09-16 16:56:00,
2013-09-16 13:01:00,58.3,46.2,30.37,West,270,0.0,0.0,64,0.00,CLR,CLR,0.00,WeatherDisplay:10.37,2013-09-16 17:01:00,
2013-09-16 13:06:00,57.7,45.6,30.37,North,0,0.0,0.0,64,0.00,CLR,CLR,0.00,WeatherDisplay:10.37,2013-09-16 17:06:00,
2013-09-16 13:12:00,57.4,45.3,30.37,West,270,0.0,0.0,64,0.00,CLR,CLR,0.00,WeatherDisplay:10.37,2013-09-16 17:12:00,
2013-09-16 13:17:00,57.9,46.2,30.38,SE,135,1.1,1.1,65,0.00,CLR,CLR,0.00,WeatherDisplay:10.37,2013-09-16 17:17:00,
2013-09-16 13:22:00,58.5,46.3,30.37,SE,135,1.3,1.3,64,0.00,CLR,CLR,0.00,WeatherDisplay:10.37,2013-09-16 17:22:00,
2013-09-16 13:29:00,59.2,46.2,30.37,SSE,158,0.0,0.0,62,0.00,CLR,CLR,0.00,WeatherDisplay:10.37,2013-09-16 17:29:00,
2013-09-16 13:34:00,59.7,46.2,30.37,SSW,202,0.0,0.0,61,0.00,CLR,CLR,0.00,WeatherDisplay:10.37,2013-09-16 17:34:00,
2013-09-16 13:40:00,59.9,46.0,30.37,NNW,338,0.0,0.0,60,0.00,CLR,CLR,0.00,WeatherDisplay:10.37,2013-09-16 17:40:00,
2013-09-16 13:45:00,60.1,46.1,30.37,North,0,0.0,0.0,60,0.00,CLR,CLR,0.00,WeatherDisplay:10.37,2013-09-16 17:45:00,
2013-09-16 13:50:00,60.6,46.7,30.37,SSE,158,2.3,2.3,60,0.00,CLR,CLR,0.00,WeatherDisplay:10.37,2013-09-16 17:50:00,
2013-09-16 13:55:00,61.3,47.3,30.37,NNW,338,2.3,2.3,60,0.00,CLR,CLR,0.00,WeatherDisplay:10.37,2013-09-16 17:55:00,
2013-09-16 14:00:00,61.2,46.7,30.37,NNW,338,1.1,1.1,59,0.00,CLR,CLR,0.00,WeatherDisplay:10.37,2013-09-16 18:00:00,
2013-09-16 14:05:00,60.6,45.8,30.37,NW,315,0.0,0.0,58,0.00,CLR,CLR,0.00,WeatherDisplay:10.37,2013-09-16 18:05:00,
2013-09-16 14:10:00,59.9,45.5,30.37,NW,315,0.0,0.0,59,0.00,CLR,CLR,0.00,WeatherDisplay:10.37,2013-09-16 18:10:00,
2013-09-16 14:15:00,58.8,45.0,30.37,NNW,338,0.0,0.0,60,0.00,CLR,CLR,0.00,WeatherDisplay:10.37,2013-09-16 18:15:00,
2013-09-16 14:20:00,58.5,44.6,30.37,SE,135,1.1,1.1,60,0.00,CLR,CLR,0.00,WeatherDisplay:10.37,2013-09-16 18:20:00,
2013-09-16 14:25:00,58.8,45.0,30.37,SE,135,0.0,0.0,60,0.00,CLR,CLR,0.00,WeatherDisplay:10.37,2013-09-16 18:25:00,
2013-09-16 14:30:00,58.8,45.4,30.37,NE,45,0.0,0.0,61,0.00,CLR,CLR,0.00,WeatherDisplay:10.37,2013-09-16 18:30:00,
2013-09-16 14:35:00,59.4,45.9,30.37,ENE,68,0.0,0.0,61,0.00,CLR,CLR,0.00,WeatherDisplay:10.37,2013-09-16 18:35:00,
2013-09-16 14:40:00,59.2,45.3,30.36,NNW,338,0.0,0.0,60,0.00,CLR,CLR,0.00,WeatherDisplay:10.37,2013-09-16 18:40:00,
2013-09-16 14:51:00,58.8,45.4,30.36,NNW,338,1.1,1.1,61,0.00,CLR,CLR,0.00,WeatherDisplay:10.37,2013-09-16 18:51:00,
2013-09-16 14:56:00,57.9,44.5,30.36,North,0,0.0,0.0,61,0.00,CLR,CLR,0.00,WeatherDisplay:10.37,2013-09-16 18:56:00,
2013-09-16 15:01:00,57.4,44.5,30.36,SSE,158,3.5,0.0,62,0.00,CLR,CLR,0.00,WeatherDisplay:10.37,2013-09-16 19:01:00,
2013-09-16 15:06:00,57.0,44.1,30.36,ENE,68,1.1,0.0,62,0.00,CLR,CLR,0.00,WeatherDisplay:10.37,2013-09-16 19:06:00,
2013-09-16 15:11:00,57.0,44.1,30.35,South,180,1.3,1.3,62,0.00,CLR,CLR,0.00,WeatherDisplay:10.37,2013-09-16 19:11:00,
2013-09-16 15:16:00,57.4,44.5,30.35,SE,135,1.1,1.1,62,0.00,CLR,CLR,0.00,WeatherDisplay:10.37,2013-09-16 19:16:00,
2013-09-16 15:21:00,57.6,44.6,30.35,NE,45,0.0,0.0,62,0.00,CLR,CLR,0.00,WeatherDisplay:10.37,2013-09-16 19:21:00,
2013-09-16 15:26:00,57.7,44.8,30.35,ENE,68,1.1,0.0,62,0.00,CLR,CLR,0.00,WeatherDisplay:10.37,2013-09-16 19:26:00,
2013-09-16 15:31:00,57.7,44.8,30.35,NNW,338,0.0,0.0,62,0.00,CLR,CLR,0.00,WeatherDisplay:10.37,2013-09-16 19:31:00,
2013-09-16 15:36:00,57.7,44.4,30.35,ESE,112,2.7,0.0,61,0.00,CLR,CLR,0.00,WeatherDisplay:10.37,2013-09-16 19:36:00,
2013-09-16 15:41:00,57.6,44.6,30.35,East,90,2.3,2.3,62,0.00,CLR,CLR,0.00,WeatherDisplay:10.37,2013-09-16 19:41:00,
2013-09-16 15:46:00,57.2,43.9,30.34,South,180,1.6,1.6,61,0.00,CLR,CLR,0.00,WeatherDisplay:10.37,2013-09-16 19:46:00,
2013-09-16 15:51:00,56.8,44.0,30.35,NNE,22,1.3,1.3,62,0.00,CLR,CLR,0.00,WeatherDisplay:10.37,2013-09-16 19:51:00,
2013-09-16 15:56:00,56.8,43.5,30.35,NW,315,1.1,1.1,61,0.00,CLR,CLR,0.00,WeatherDisplay:10.37,2013-09-16 19:56:00,
2013-09-16 16:01:00,56.5,43.6,30.35,ESE,112,0.0,0.0,62,0.00,CLR,CLR,0.00,WeatherDisplay:10.37,2013-09-16 20:01:00,
2013-09-16 16:06:00,56.7,44.2,30.34,SSE,158,2.2,2.2,63,0.00,CLR,CLR,0.00,WeatherDisplay:10.37,2013-09-16 20:06:00,
2013-09-16 16:11:00,56.5,43.6,30.34,SW,225,2.3,2.3,62,0.00,CLR,CLR,0.00,WeatherDisplay:10.37,2013-09-16 20:11:00,
2013-09-16 16:16:00,56.8,44.4,30.34,SE,135,3.1,3.1,63,0.00,CLR,CLR,0.00,WeatherDisplay:10.37,2013-09-16 20:16:00,
2013-09-16 16:21:00,56.8,44.0,30.35,ESE,112,3.5,3.5,62,0.00,CLR,CLR,0.00,WeatherDisplay:10.37,2013-09-16 20:21:00,
2013-09-16 16:26:00,56.5,43.6,30.35,SE,135,2.7,0.0,62,0.00,CLR,CLR,0.00,WeatherDisplay:10.37,2013-09-16 20:26:00,
2013-09-16 16:31:00,56.1,43.7,30.34,West,270,0.0,0.0,63,0.00,CLR,CLR,0.00,WeatherDisplay:10.37,2013-09-16 20:31:00,
2013-09-16 16:36:00,56.1,43.7,30.34,SSE,158,0.0,0.0,63,0.00,CLR,CLR,0.00,WeatherDisplay:10.37,2013-09-16 20:36:00,
2013-09-16 16:41:00,55.9,43.5,30.34,ENE,68,0.0,0.0,63,0.00,CLR,CLR,0.00,WeatherDisplay:10.37,2013-09-16 20:41:00,
2013-09-16 16:46:00,55.9,43.9,30.34,ESE,112,1.6,1.6,64,0.00,CLR,CLR,0.00,WeatherDisplay:10.37,2013-09-16 20:46:00,
2013-09-16 16:51:00,55.6,43.2,30.34,SSE,158,1.6,1.6,63,0.00,CLR,CLR,0.00,WeatherDisplay:10.37,2013-09-16 20:51:00,
2013-09-16 16:56:00,55.2,43.2,30.34,NNW,338,0.0,0.0,64,0.00,CLR,CLR,0.00,WeatherDisplay:10.37,2013-09-16 20:56:00,
2013-09-16 17:01:00,55.2,43.2,30.34,NNW,338,0.0,0.0,64,0.00,CLR,CLR,0.00,WeatherDisplay:10.37,2013-09-16 21:01:00,
2013-09-16 17:06:00,55.0,43.1,30.34,ENE,68,0.0,0.0,64,0.00,CLR,CLR,0.00,WeatherDisplay:10.37,2013-09-16 21:06:00,
2013-09-16 17:11:00,54.9,42.9,30.33,ENE,68,0.0,0.0,64,0.00,CLR,CLR,0.00,WeatherDisplay:10.37,2013-09-16 21:11:00,
2013-09-16 17:16:00,54.7,43.1,30.33,NE,45,0.0,0.0,65,0.00,CLR,CLR,0.00,WeatherDisplay:10.37,2013-09-16 21:16:00,
2013-09-16 17:21:00,54.7,43.1,30.33,NE,45,0.0,0.0,65,0.00,CLR,CLR,0.00,WeatherDisplay:10.37,2013-09-16 21:21:00,
2013-09-16 17:26:00,54.7,43.1,30.33,SE,135,1.1,1.1,65,0.00,CLR,CLR,0.00,WeatherDisplay:10.37,2013-09-16 21:26:00,
2013-09-16 17:31:00,54.5,43.0,30.33,NW,315,0.0,0.0,65,0.00,CLR,CLR,0.00,WeatherDisplay:10.37,2013-09-16 21:31:00,
2013-09-16 17:36:00,54.3,42.8,30.33,NNW,338,1.1,1.1,65,0.00,CLR,CLR,0.00,WeatherDisplay:10.37,2013-09-16 21:36:00,
2013-09-16 17:41:00,54.3,42.8,30.33,SSE,158,2.5,2.5,65,0.00,CLR,CLR,0.00,WeatherDisplay:10.37,2013-09-16 21:41:00,
2013-09-16 17:46:00,54.1,42.6,30.33,ESE,112,0.0,0.0,65,0.00,CLR,CLR,0.00,WeatherDisplay:10.37,2013-09-16 21:46:00,
2013-09-16 17:51:00,54.1,42.6,30.33,East,90,0.0,0.0,65,0.00,CLR,CLR,0.00,WeatherDisplay:10.37,2013-09-16 21:51:00,
2013-09-16 17:56:00,54.0,42.5,30.33,ENE,68,0.0,0.0,65,0.00,CLR,CLR,0.00,WeatherDisplay:10.37,2013-09-16 21:56:00,
2013-09-16 18:01:00,54.0,42.9,30.33,SSE,158,0.0,0.0,66,0.00,CLR,CLR,0.00,WeatherDisplay:10.37,2013-09-16 22:01:00,
2013-09-16 18:06:00,53.8,42.7,30.33,SSW,202,1.6,1.6,66,0.00,CLR,CLR,0.00,WeatherDisplay:10.37,2013-09-16 22:06:00,
2013-09-16 18:11:00,53.8,42.7,30.33,East,90,1.6,1.6,66,0.00,CLR,CLR,0.00,WeatherDisplay:10.37,2013-09-16 22:11:00,
2013-09-16 18:16:00,53.8,42.7,30.32,South,180,0.0,0.0,66,0.00,CLR,CLR,0.00,WeatherDisplay:10.37,2013-09-16 22:16:00,
2013-09-16 18:21:00,53.4,42.3,30.32,SE,135,1.1,1.1,66,0.00,CLR,CLR,0.00,WeatherDisplay:10.37,2013-09-16 22:21:00,
2013-09-16 18:26:00,53.4,42.7,30.32,East,90,0.0,0.1,67,0.00,CLR,CLR,0.00,WeatherDisplay:10.37,2013-09-16 22:26:00,
2013-09-16 18:31:00,53.4,42.7,30.32,SE,135,1.1,1.1,67,0.00,CLR,CLR,0.00,WeatherDisplay:10.37,2013-09-16 22:31:00,
2013-09-16 18:36:00,53.2,42.9,30.32,SE,135,2.3,2.3,68,0.00,CLR,CLR,0.00,WeatherDisplay:10.37,2013-09-16 22:36:00,
2013-09-16 18:41:00,53.2,42.9,30.32,SSE,158,0.0,0.0,68,0.00,CLR,CLR,0.00,WeatherDisplay:10.37,2013-09-16 22:41:00,
2013-09-16 18:46:00,53.2,42.9,30.31,East,90,1.1,1.1,68,0.00,CLR,CLR,0.00,WeatherDisplay:10.37,2013-09-16 22:46:00,
2013-09-16 18:51:00,52.9,42.6,30.32,South,180,2.3,2.3,68,0.00,CLR,CLR,0.00,WeatherDisplay:10.37,2013-09-16 22:51:00,
2013-09-16 18:56:00,52.7,42.4,30.32,SSE,158,0.0,0.0,68,0.00,CLR,CLR,0.00,WeatherDisplay:10.37,2013-09-16 22:56:00,
2013-09-16 19:01:00,52.5,42.6,30.32,SE,135,0.0,0.0,69,0.00,CLR,CLR,0.00,WeatherDisplay:10.37,2013-09-16 23:01:00,
2013-09-16 19:06:00,52.3,42.8,30.31,ESE,112,0.0,0.0,70,0.00,CLR,CLR,0.00,WeatherDisplay:10.37,2013-09-16 23:06:00,
2013-09-16 19:11:00,52.2,42.7,30.31,South,180,0.0,0.0,70,0.00,CLR,CLR,0.00,WeatherDisplay:10.37,2013-09-16 23:11:00,
2013-09-16 19:16:00,51.8,42.3,30.31,SE,135,0.0,0.0,70,0.00,CLR,CLR,0.00,WeatherDisplay:10.37,2013-09-16 23:16:00,
2013-09-16 19:21:00,51.6,42.5,30.31,SE,135,0.0,0.0,71,0.00,CLR,CLR,0.00,WeatherDisplay:10.37,2013-09-16 23:21:00,
2013-09-16 19:26:00,51.3,42.5,30.31,SE,135,0.0,0.0,72,0.00,CLR,CLR,0.00,WeatherDisplay:10.37,2013-09-16 23:26:00,
2013-09-16 19:31:00,50.9,42.6,30.31,South,180,0.0,0.0,73,0.00,CLR,CLR,0.00,WeatherDisplay:10.37,2013-09-16 23:31:00,
2013-09-16 19:36:00,50.7,42.4,30.31,South,180,0.0,0.0,73,0.00,CLR,CLR,0.00,WeatherDisplay:10.37,2013-09-16 23:36:00,
2013-09-16 19:41:00,50.5,42.6,30.31,South,180,0.0,0.0,74,0.00,CLR,CLR,0.00,WeatherDisplay:10.37,2013-09-16 23:41:00,
2013-09-16 19:46:00,49.8,41.9,30.31,South,180,0.0,0.0,74,0.00,CLR,CLR,0.00,WeatherDisplay:10.37,2013-09-16 23:46:00,
2013-09-16 19:51:00,49.5,41.5,30.31,South,180,0.0,0.0,74,0.00,CLR,CLR,0.00,WeatherDisplay:10.37,2013-09-16 23:51:00,
2013-09-16 19:56:00,49.1,41.5,30.30,South,180,0.0,0.0,75,0.00,CLR,CLR,0.00,WeatherDisplay:10.37,2013-09-16 23:56:00,
2013-09-16 20:01:00,48.7,41.5,30.30,SSE,158,0.0,0.0,76,0.00,CLR,CLR,0.00,WeatherDisplay:10.37,2013-09-17 00:01:00,
2013-09-16 20:06:00,48.4,41.2,30.30,SSE,158,0.0,0.0,76,0.00,CLR,CLR,0.00,WeatherDisplay:10.37,2013-09-17 00:06:00,
2013-09-16 20:11:00,48.0,41.2,30.30,ESE,112,0.0,0.0,77,0.00,CLR,CLR,0.00,WeatherDisplay:10.37,2013-09-17 00:11:00,
2013-09-16 20:16:00,47.8,41.0,30.30,SE,135,0.0,0.0,77,0.00,CLR,CLR,0.00,WeatherDisplay:10.37,2013-09-17 00:16:00,
2013-09-16 20:21:00,47.5,40.6,30.29,SE,135,0.0,0.0,77,0.00,CLR,CLR,0.00,WeatherDisplay:10.37,2013-09-17 00:21:00,
2013-09-16 20:26:00,47.1,40.3,30.29,SE,135,0.0,0.0,77,0.00,CLR,CLR,0.00,WeatherDisplay:10.37,2013-09-17 00:26:00,
2013-09-16 20:31:00,47.1,40.6,30.29,SE,135,0.0,0.0,78,0.00,CLR,CLR,0.00,WeatherDisplay:10.37,2013-09-17 00:31:00,
2013-09-16 20:36:00,46.8,40.3,30.29,SE,135,0.0,0.0,78,0.00,CLR,CLR,0.00,WeatherDisplay:10.37,2013-09-17 00:36:00,
2013-09-16 20:41:00,46.6,40.1,30.30,SE,135,0.0,0.0,78,0.00,CLR,CLR,0.00,WeatherDisplay:10.37,2013-09-17 00:41:00,
2013-09-16 20:46:00,46.2,39.7,30.30,SE,135,0.0,0.0,78,0.00,CLR,CLR,0.00,WeatherDisplay:10.37,2013-09-17 00:46:00,
2013-09-16 20:51:00,46.2,40.1,30.30,SE,135,0.0,0.0,79,0.00,CLR,CLR,0.00,WeatherDisplay:10.37,2013-09-17 00:51:00,
2013-09-16 20:56:00,46.0,39.9,30.30,SE,135,0.0,0.0,79,0.00,CLR,CLR,0.00,WeatherDisplay:10.37,2013-09-17 00:56:00,
2013-09-16 21:01:00,45.7,39.5,30.30,SE,135,0.0,0.0,79,0.00,CLR,CLR,0.00,WeatherDisplay:10.37,2013-09-17 01:01:00,
2013-09-16 21:06:00,45.5,39.4,30.30,SE,135,0.0,0.0,79,0.00,CLR,CLR,0.00,WeatherDisplay:10.37,2013-09-17 01:06:00,
2013-09-16 21:11:00,45.3,39.5,30.30,SE,135,0.0,0.0,80,0.00,CLR,CLR,0.00,WeatherDisplay:10.37,2013-09-17 01:11:00,
2013-09-16 21:16:00,45.1,39.3,30.29,SE,135,0.0,0.0,80,0.00,CLR,CLR,0.00,WeatherDisplay:10.37,2013-09-17 01:16:00,
2013-09-16 21:21:00,45.0,39.2,30.29,SE,135,0.0,0.0,80,0.00,CLR,CLR,0.00,WeatherDisplay:10.37,2013-09-17 01:21:00,
2013-09-16 21:26:00,45.0,39.2,30.30,SE,135,0.0,0.0,80,0.00,CLR,CLR,0.00,WeatherDisplay:10.37,2013-09-17 01:26:00,
2013-09-16 21:31:00,44.6,38.8,30.29,NNE,22,0.0,0.0,80,0.00,CLR,CLR,0.00,WeatherDisplay:10.37,2013-09-17 01:31:00,
2013-09-16 21:36:00,44.6,39.1,30.29,NNE,22,0.0,0.0,81,0.00,CLR,CLR,0.00,WeatherDisplay:10.37,2013-09-17 01:36:00,
2013-09-16 21:41:00,44.4,38.6,30.29,NNE,22,0.0,0.0,80,0.00,CLR,CLR,0.00,WeatherDisplay:10.37,2013-09-17 01:41:00,
2013-09-16 21:46:00,44.2,38.8,30.29,NNE,22,0.0,0.0,81,0.00,CLR,CLR,0.00,WeatherDisplay:10.37,2013-09-17 01:46:00,
2013-09-16 21:51:00,44.2,38.8,30.29,NNE,22,0.0,0.0,81,0.00,CLR,CLR,0.00,WeatherDisplay:10.37,2013-09-17 01:51:00,
2013-09-16 21:56:00,43.9,38.4,30.29,NNE,22,0.0,0.0,81,0.00,CLR,CLR,0.00,WeatherDisplay:10.37,2013-09-17 01:56:00,
2013-09-16 22:01:00,43.9,38.7,30.29,ESE,112,0.0,0.0,82,0.00,CLR,CLR,0.00,WeatherDisplay:10.37,2013-09-17 02:01:00,
2013-09-16 22:06:00,43.9,38.7,30.29,ESE,112,0.0,0.0,82,0.00,CLR,CLR,0.00,WeatherDisplay:10.37,2013-09-17 02:06:00,
2013-09-16 22:11:00,43.7,38.6,30.29,NE,45,0.0,0.0,82,0.00,CLR,CLR,0.00,WeatherDisplay:10.37,2013-09-17 02:11:00,
2013-09-16 22:16:00,43.7,38.6,30.29,NE,45,0.0,0.0,82,0.00,CLR,CLR,0.00,WeatherDisplay:10.37,2013-09-17 02:16:00,
2013-09-16 22:21:00,43.7,38.6,30.29,NE,45,0.0,0.0,82,0.00,CLR,CLR,0.00,WeatherDisplay:10.37,2013-09-17 02:21:00,
2013-09-16 22:26:00,43.7,38.6,30.29,NE,45,0.0,0.0,82,0.00,CLR,CLR,0.00,WeatherDisplay:10.37,2013-09-17 02:26:00,
2013-09-16 22:31:00,43.5,38.4,30.29,NE,45,0.0,0.0,82,0.00,CLR,CLR,0.00,WeatherDisplay:10.37,2013-09-17 02:31:00,
2013-09-16 22:36:00,43.5,38.4,30.29,NE,45,0.0,0.0,82,0.00,CLR,CLR,0.00,WeatherDisplay:10.37,2013-09-17 02:36:00,
2013-09-16 22:41:00,43.3,38.2,30.29,ENE,68,0.0,0.0,82,0.00,CLR,CLR,0.00,WeatherDisplay:10.37,2013-09-17 02:41:00,
2013-09-16 22:46:00,43.2,38.0,30.29,ENE,68,0.0,0.0,82,0.00,CLR,CLR,0.00,WeatherDisplay:10.37,2013-09-17 02:46:00,
2013-09-16 22:51:00,43.0,37.9,30.29,NE,45,0.0,0.0,82,0.00,CLR,CLR,0.00,WeatherDisplay:10.37,2013-09-17 02:51:00,
2013-09-16 22:56:00,42.6,37.5,30.29,NE,45,0.0,0.0,82,0.00,CLR,CLR,0.00,WeatherDisplay:10.37,2013-09-17 02:56:00,
2013-09-16 23:01:00,42.6,37.8,30.29,NE,45,0.0,0.0,83,0.00,CLR,CLR,0.00,WeatherDisplay:10.37,2013-09-17 03:01:00,
2013-09-16 23:07:00,42.6,37.8,30.29,North,0,0.0,0.0,83,0.00,CLR,CLR,0.00,WeatherDisplay:10.37,2013-09-17 03:07:00,
2013-09-16 23:12:00,42.4,37.6,30.28,NNE,22,0.0,0.0,83,0.00,CLR,CLR,0.00,WeatherDisplay:10.37,2013-09-17 03:12:00,
2013-09-16 23:17:00,42.4,37.6,30.29,NNE,22,0.0,0.0,83,0.00,CLR,CLR,0.00,WeatherDisplay:10.37,2013-09-17 03:17:00,
2013-09-16 23:22:00,42.4,37.6,30.28,NE,45,0.0,0.0,83,0.00,CLR,CLR,0.00,WeatherDisplay:10.37,2013-09-17 03:22:00,
2013-09-16 23:27:00,42.3,37.5,30.29,NNE,22,0.0,0.0,83,0.00,CLR,CLR,0.00,WeatherDisplay:10.37,2013-09-17 03:27:00,
2013-09-16 23:32:00,42.1,37.3,30.29,SE,135,0.0,0.0,83,0.00,CLR,CLR,0.00,WeatherDisplay:10.37,2013-09-17 03:32:00,
2013-09-16 23:38:00,41.9,37.1,30.28,East,90,0.0,0.0,83,0.00,CLR,CLR,0.00,WeatherDisplay:10.37,2013-09-17 03:38:00,
2013-09-16 23:43:00,41.5,36.8,30.28,East,90,0.0,0.0,83,0.00,CLR,CLR,0.00,WeatherDisplay:10.37,2013-09-17 03:43:00,
2013-09-16 23:48:00,41.5,36.8,30.28,East,90,0.0,0.0,83,0.00,CLR,CLR,0.00,WeatherDisplay:10.37,2013-09-17 03:48:00,
2013-09-16 23:53:00,41.4,36.6,30.27,East,90,0.0,0.0,83,0.00,CLR,CLR,0.00,WeatherDisplay:10.37,2013-09-17 03:53:00,
2013-09-16 23:58:00,41.5,36.8,30.28,East,90,0.0,0.0,83,0.00,CLR,CLR,0.00,WeatherDisplay:10.37,2013-09-17 03:58:00,